CheckWX is a tool to help pilots better visualize weather data.  It is not intended as a substitute for an official pre-flight weather briefing.

23:30:55 UTC

KBRL METAR
Southeast Iowa Regional Airport
Burlington, Iowa, USA
Current

38 mins ago

KBRL 112253Z AUTO 31006KT 10SM CLR 32/22 A2983 RMK AO2 SLP094 T03170217
Observed
Jul-11 @ 22:53 UTC
Wind
  • 310° at 6 KTS
Visibility
10 SM
Flight Rules
VFR
Cloud Levels
  • Clear skies
Temperature
32°C / 90°F
Dewpoint
22°C / 72°F
Humidity
55%
Altimeter
29.83" Hg
Pressure
1010.12 hPa
Previous

2 hours ago

KBRL 112153Z AUTO 28006KT 10SM CLR 32/22 A2983 RMK AO2 SLP094 T03220217
Observed
Jul-11 @ 21:53 UTC
Wind
  • 280° at 6 KTS
Visibility
10 SM
Flight Rules
VFR
Cloud Levels
  • Clear skies
Temperature
32°C / 90°F
Dewpoint
22°C / 72°F
Humidity
55%
Altimeter
29.83" Hg
Pressure
1010.12 hPa
Previous

3 hours ago

KBRL 112053Z AUTO 28007KT 10SM CLR 33/22 A2985 RMK AO2 SLP102 T03280217 56024
Observed
Jul-11 @ 20:53 UTC
Wind
  • 280° at 7 KTS
Visibility
10 SM
Flight Rules
VFR
Cloud Levels
  • Clear skies
Temperature
33°C / 91°F
Dewpoint
22°C / 72°F
Humidity
52%
Altimeter
29.85" Hg
Pressure
1010.82 hPa